Time;durP1;ratioP1;P1;durP2;ratioP2;P2;SDS_P1;SDS_P2;PMS_P1;PMS_P2;Temp;Humidity;BMP_temperature;BMP_pressure;BME280_temperature;BME280_humidity;BME280_pressure;Samples;Min_cycle;Max_cycle;Signal;HPM_P1;HPM_P2
2022/03/05 00:00:25;;;;;;;26.83;22.55;;;1.20;99.90;;;;;;4939524;29;20669;-63
2022/03/05 00:02:52;;;;;;;26.73;22.55;;;1.20;99.90;;;;;;4935373;28;20230;-64
2022/03/05 00:05:21;;;;;;;29.85;23.42;;;1.20;99.90;;;;;;4936319;29;20685;-63
2022/03/05 00:07:49;;;;;;;28.90;22.67;;;1.20;99.90;;;;;;4938078;29;20255;-63
2022/03/05 00:10:18;;;;;;;26.92;21.83;;;1.10;99.90;;;;;;4935107;29;20642;-63
2022/03/05 00:12:48;;;;;;;28.77;23.70;;;1.10;99.90;;;;;;4940260;29;20204;-63
2022/03/05 00:15:17;;;;;;;27.77;22.75;;;1.10;99.90;;;;;;4938455;28;20311;-62
2022/03/05 00:17:46;;;;;;;27.33;20.98;;;1.00;99.90;;;;;;4945438;29;20275;-63
2022/03/05 00:20:15;;;;;;;30.00;21.58;;;1.20;99.90;;;;;;4945448;29;20207;-63
2022/03/05 00:22:42;;;;;;;33.88;22.88;;;1.40;99.90;;;;;;4942245;29;20283;-62
2022/03/05 00:25:11;;;;;;;28.38;23.15;;;1.50;99.90;;;;;;4943378;29;20717;-62
2022/03/05 00:27:40;;;;;;;26.67;20.95;;;1.70;99.90;;;;;;4942373;29;20302;-62
2022/03/05 00:30:10;;;;;;;28.92;21.38;;;2.00;99.90;;;;;;4940031;28;20235;-62
2022/03/05 00:32:38;;;;;;;33.03;22.63;;;1.90;99.90;;;;;;4936918;29;20236;-61
2022/03/05 00:35:07;;;;;;;32.00;22.08;;;1.90;99.90;;;;;;4964400;23;20267;-61
2022/03/05 00:37:36;;;;;;;24.40;20.40;;;2.00;99.90;;;;;;4955328;28;20681;-62
2022/03/05 00:40:05;;;;;;;23.42;20.63;;;2.00;99.90;;;;;;4948211;29;20287;-61
2022/03/05 00:42:33;;;;;;;27.23;21.77;;;1.80;99.90;;;;;;4955433;28;20307;-61
2022/03/05 00:45:01;;;;;;;23.20;19.05;;;1.90;99.90;;;;;;4951371;29;20255;-61
2022/03/05 00:47:31;;;;;;;28.20;21.23;;;1.90;99.90;;;;;;4934737;29;20211;-61
2022/03/05 00:49:58;;;;;;;26.45;21.98;;;1.90;99.90;;;;;;4935919;29;20232;-61
2022/03/05 00:52:26;;;;;;;24.27;20.10;;;1.80;99.90;;;;;;4926529;29;20267;-60
2022/03/05 00:54:54;;;;;;;26.75;21.67;;;1.90;99.90;;;;;;4935737;29;20391;-61
2022/03/05 00:57:22;;;;;;;26.42;20.45;;;1.90;99.90;;;;;;4930596;29;20661;-60
2022/03/05 00:59:50;;;;;;;23.60;19.60;;;2.00;99.90;;;;;;4932086;29;20231;-61
2022/03/05 01:02:18;;;;;;;27.90;21.38;;;2.10;99.90;;;;;;4932319;29;20234;-61
2022/03/05 01:04:47;;;;;;;23.73;19.45;;;2.00;99.90;;;;;;4931517;29;20746;-61
2022/03/05 01:07:15;;;;;;;22.95;19.80;;;2.00;99.90;;;;;;4932269;29;20646;-60
2022/03/05 01:09:43;;;;;;;24.33;20.52;;;2.00;99.90;;;;;;4931430;29;20778;-61
2022/03/05 01:12:11;;;;;;;26.30;20.33;;;1.80;99.90;;;;;;4931671;29;20228;-61
2022/03/05 01:14:39;;;;;;;26.15;19.95;;;1.80;99.90;;;;;;4931796;29;20262;-61
2022/03/05 01:17:08;;;;;;;23.50;19.42;;;2.00;99.90;;;;;;4933702;29;20200;-60
2022/03/05 01:19:36;;;;;;;23.88;19.85;;;2.20;99.90;;;;;;4931589;29;20287;-61
2022/03/05 01:22:05;;;;;;;26.05;20.60;;;2.00;99.90;;;;;;4931740;29;20208;-61
2022/03/05 01:24:33;;;;;;;26.30;20.50;;;1.80;99.90;;;;;;4931571;29;20752;-61
2022/03/05 01:27:01;;;;;;;23.88;19.77;;;1.80;99.90;;;;;;4931832;29;20208;-60
2022/03/05 01:29:29;;;;;;;25.38;21.80;;;1.70;99.90;;;;;;4931706;29;20265;-61
2022/03/05 01:31:57;;;;;;;26.60;20.58;;;1.40;99.90;;;;;;4935301;29;20304;-61
2022/03/05 01:34:25;;;;;;;24.23;20.23;;;1.20;99.90;;;;;;4935136;29;20207;-61
2022/03/05 01:36:53;;;;;;;26.70;19.90;;;1.30;99.90;;;;;;4934261;29;20268;-60
2022/03/05 01:39:22;;;;;;;25.52;19.48;;;1.30;99.90;;;;;;4934929;29;20283;-61
2022/03/05 01:41:54;;;;;;;21.45;18.48;;;1.40;99.90;;;;;;4934991;29;20291;-62
2022/03/05 01:44:22;;;;;;;24.70;19.30;;;1.20;99.90;;;;;;4935094;29;20717;-62
2022/03/05 01:46:51;;;;;;;26.85;21.42;;;1.40;99.90;;;;;;4934759;29;20644;-62
2022/03/05 01:49:19;;;;;;;23.52;19.73;;;1.70;99.90;;;;;;4935083;29;20200;-62
2022/03/05 01:51:48;;;;;;;23.52;19.10;;;1.70;99.90;;;;;;4929298;29;20243;-62
2022/03/05 01:54:15;;;;;;;25.08;19.65;;;1.80;99.90;;;;;;4934276;29;20230;-61
2022/03/05 01:56:45;;;;;;;23.48;19.40;;;1.60;99.90;;;;;;4934893;29;20314;-61
2022/03/05 01:59:13;;;;;;;26.77;19.17;;;1.30;99.90;;;;;;4932570;29;20300;-61
2022/03/05 02:01:41;;;;;;;22.80;19.00;;;1.20;99.90;;;;;;4934484;29;20639;-60
2022/03/05 02:04:09;;;;;;;26.70;20.50;;;1.00;99.90;;;;;;4934266;29;20662;-60
2022/03/05 02:06:37;;;;;;;27.65;19.58;;;0.90;99.90;;;;;;4934754;29;20703;-61
2022/03/05 02:09:05;;;;;;;24.50;19.65;;;0.90;99.90;;;;;;4934232;29;20212;-60
2022/03/05 02:11:33;;;;;;;25.90;21.35;;;0.80;99.90;;;;;;4934734;29;20233;-61
2022/03/05 02:14:03;;;;;;;25.30;20.58;;;0.80;99.90;;;;;;4933767;29;20200;-61
2022/03/05 02:16:31;;;;;;;23.25;19.40;;;1.10;99.90;;;;;;4934573;29;20312;-61
2022/03/05 02:18:59;;;;;;;22.08;19.60;;;1.10;99.90;;;;;;4934365;29;20231;-61
2022/03/05 02:21:28;;;;;;;24.10;20.20;;;1.40;99.90;;;;;;4932664;29;20598;-61
2022/03/05 02:23:56;;;;;;;22.45;17.95;;;1.60;99.90;;;;;;4934476;29;20251;-61
2022/03/05 02:26:24;;;;;;;25.63;20.38;;;1.70;99.90;;;;;;4935182;29;20306;-61
2022/03/05 02:28:52;;;;;;;23.77;19.63;;;2.10;99.90;;;;;;4940559;29;20235;-61
2022/03/05 02:31:20;;;;;;;25.15;18.92;;;1.80;99.90;;;;;;4933989;29;20307;-61
2022/03/05 02:33:52;;;;;;;26.23;18.80;;;2.00;99.90;;;;;;4933078;29;20283;-61
2022/03/05 02:36:21;;;;;;;24.15;19.65;;;1.90;99.90;;;;;;4933757;29;20319;-61
2022/03/05 02:38:50;;;;;;;21.75;18.52;;;2.10;99.90;;;;;;4933624;29;20270;-62
2022/03/05 02:41:18;;;;;;;26.55;20.70;;;2.30;99.90;;;;;;4934057;29;20215;-62
2022/03/05 02:43:46;;;;;;;25.25;19.98;;;2.20;99.90;;;;;;4933608;29;20201;-62
2022/03/05 02:46:15;;;;;;;21.42;17.80;;;2.20;99.90;;;;;;4934801;29;20227;-62
2022/03/05 02:48:42;;;;;;;22.65;17.70;;;2.40;99.90;;;;;;4934053;29;20643;-62
2022/03/05 02:51:10;;;;;;;25.35;20.00;;;2.60;99.90;;;;;;4933411;29;20239;-61
2022/03/05 02:53:38;;;;;;;21.42;18.55;;;2.70;99.90;;;;;;4931489;29;20283;-59
2022/03/05 02:56:07;;;;;;;24.40;18.67;;;2.70;99.90;;;;;;4930398;29;20666;-61
2022/03/05 02:58:35;;;;;;;22.00;19.27;;;2.60;99.90;;;;;;4929718;29;20204;-62
2022/03/05 03:01:03;;;;;;;23.50;18.48;;;2.80;99.90;;;;;;4927801;29;20290;-61
2022/03/05 03:03:31;;;;;;;20.77;17.45;;;3.00;99.90;;;;;;4930328;29;20208;-59
2022/03/05 03:05:59;;;;;;;19.80;17.67;;;3.00;99.90;;;;;;4932910;29;20777;-60
2022/03/05 03:08:27;;;;;;;20.75;17.15;;;3.10;99.90;;;;;;4927726;29;20203;-62
2022/03/05 03:10:55;;;;;;;25.73;20.45;;;3.10;99.90;;;;;;4932946;29;20208;-62
2022/03/05 03:13:24;;;;;;;23.92;17.80;;;3.20;99.90;;;;;;4928444;29;20677;-62
2022/03/05 03:15:52;;;;;;;23.27;18.75;;;3.20;99.90;;;;;;4931730;29;20251;-62
2022/03/05 03:18:20;;;;;;;22.67;18.52;;;3.20;99.90;;;;;;4933753;29;20219;-62
2022/03/05 03:20:48;;;;;;;21.60;19.30;;;3.40;99.90;;;;;;4934153;29;20212;-62
2022/03/05 03:23:16;;;;;;;25.10;19.08;;;3.40;99.90;;;;;;4929131;29;20596;-62
2022/03/05 03:25:44;;;;;;;23.33;18.17;;;3.30;99.90;;;;;;4931040;29;20243;-62
2022/03/05 03:28:11;;;;;;;23.10;18.10;;;3.20;99.90;;;;;;4933798;29;20290;-61
2022/03/05 03:30:41;;;;;;;23.45;18.52;;;3.00;99.90;;;;;;4933402;29;20300;-62
2022/03/05 03:33:09;;;;;;;30.33;19.77;;;2.80;99.90;;;;;;4933295;29;20288;-62
2022/03/05 03:35:37;;;;;;;24.35;19.45;;;2.80;99.90;;;;;;4933046;29;20274;-62
2022/03/05 03:38:05;;;;;;;24.90;20.50;;;2.50;99.90;;;;;;4933314;29;20232;-62
2022/03/05 03:40:33;;;;;;;23.92;18.98;;;2.30;99.90;;;;;;4933005;29;20200;-62
2022/03/05 03:43:01;;;;;;;22.35;17.67;;;2.40;99.90;;;;;;4932913;29;20283;-61
2022/03/05 03:45:29;;;;;;;21.02;17.33;;;2.30;99.90;;;;;;4933353;29;20607;-62
2022/03/05 03:47:58;;;;;;;20.95;18.75;;;2.30;99.90;;;;;;4933686;29;20240;-61
2022/03/05 03:50:26;;;;;;;22.88;18.58;;;2.30;99.90;;;;;;4934119;29;20291;-61
2022/03/05 03:52:54;;;;;;;24.63;20.80;;;2.30;99.90;;;;;;4936554;29;20283;-61
2022/03/05 03:55:24;;;;;;;26.05;20.15;;;2.20;99.90;;;;;;4931730;29;20224;-61
2022/03/05 03:57:52;;;;;;;24.15;20.40;;;2.00;99.90;;;;;;4936450;29;20262;-61
2022/03/05 04:00:22;;;;;;;22.00;18.42;;;2.10;99.90;;;;;;4936593;29;20214;-62
2022/03/05 04:02:50;;;;;;;24.58;19.63;;;1.90;99.90;;;;;;4936998;29;20192;-61
2022/03/05 04:05:20;;;;;;;25.40;20.70;;;2.00;99.90;;;;;;4936847;29;20227;-61
2022/03/05 04:10:33;;;;;;;21.92;19.23;;;2.20;99.90;;;;;;4937004;29;20231;-62
2022/03/05 04:13:01;;;;;;;21.55;18.20;;;2.40;99.90;;;;;;4936667;29;20200;-62
2022/03/05 04:15:29;;;;;;;26.10;21.20;;;2.20;99.90;;;;;;4935866;29;20709;-61
2022/03/05 04:17:57;;;;;;;24.30;20.98;;;2.20;99.90;;;;;;4937107;29;20760;-61
2022/03/05 04:20:26;;;;;;;25.20;20.80;;;2.20;99.90;;;;;;4934181;29;20243;-61
2022/03/05 04:22:54;;;;;;;25.50;20.25;;;2.10;99.90;;;;;;4934333;29;20215;-61
2022/03/05 04:25:22;;;;;;;24.98;20.98;;;1.90;99.90;;;;;;4931501;29;20323;-61
2022/03/05 04:27:50;;;;;;;21.88;19.55;;;2.00;99.90;;;;;;4936720;29;20210;-61
2022/03/05 04:30:18;;;;;;;23.02;19.80;;;2.00;99.90;;;;;;4936429;29;20246;-61
2022/03/05 04:32:46;;;;;;;26.10;21.02;;;1.70;99.90;;;;;;4936089;29;20287;-61
2022/03/05 04:35:14;;;;;;;25.58;22.10;;;1.60;99.90;;;;;;4934861;29;20315;-61
2022/03/05 04:37:43;;;;;;;24.70;20.65;;;1.50;99.90;;;;;;4936234;29;20725;-61
2022/03/05 04:40:12;;;;;;;22.73;20.30;;;1.60;99.90;;;;;;4936174;29;20294;-62
2022/03/05 04:42:39;;;;;;;24.85;20.80;;;1.70;99.90;;;;;;4933960;29;20231;-62
2022/03/05 04:45:08;;;;;;;25.10;21.33;;;1.70;99.90;;;;;;4936471;29;20255;-61
2022/03/05 04:47:36;;;;;;;24.80;21.13;;;1.70;99.90;;;;;;4936338;29;20232;-61
2022/03/05 04:50:05;;;;;;;22.70;20.13;;;1.90;99.90;;;;;;4935959;29;20232;-62
2022/03/05 04:52:34;;;;;;;21.95;19.63;;;1.90;99.90;;;;;;4934697;29;20204;-61
2022/03/05 04:55:03;;;;;;;23.02;20.30;;;2.20;99.90;;;;;;4929951;29;20705;-62
2022/03/05 04:57:31;;;;;;;25.80;21.02;;;2.30;99.90;;;;;;4935612;29;20690;-61
2022/03/05 04:59:59;;;;;;;24.33;20.98;;;2.40;99.90;;;;;;4935158;29;20239;-61
2022/03/05 05:02:27;;;;;;;23.80;20.20;;;2.60;99.90;;;;;;4934696;29;20296;-62
2022/03/05 05:04:55;;;;;;;21.20;18.40;;;2.70;99.90;;;;;;4935897;29;20620;-62
2022/03/05 05:07:23;;;;;;;25.48;21.38;;;2.60;99.90;;;;;;4936004;29;20196;-61
2022/03/05 05:09:51;;;;;;;22.38;19.65;;;2.70;99.90;;;;;;4934582;29;20288;-62
2022/03/05 05:12:20;;;;;;;27.15;22.90;;;2.80;99.90;;;;;;4935462;29;20643;-61
2022/03/05 05:14:48;;;;;;;23.38;20.48;;;2.80;99.90;;;;;;4935364;29;20212;-61
2022/03/05 05:17:16;;;;;;;25.95;21.70;;;2.70;99.90;;;;;;4935351;29;20259;-62
2022/03/05 05:19:44;;;;;;;23.88;20.27;;;2.40;99.90;;;;;;4935592;29;20287;-62
2022/03/05 05:22:11;;;;;;;24.83;21.48;;;2.20;99.90;;;;;;4934909;29;20234;-62
2022/03/05 05:24:40;;;;;;;23.73;21.20;;;2.20;99.90;;;;;;4931055;29;20334;-61
2022/03/05 05:27:08;;;;;;;24.88;21.15;;;1.90;99.90;;;;;;4935494;29;20268;-62
2022/03/05 05:29:37;;;;;;;27.90;21.38;;;1.70;99.90;;;;;;4935132;29;20219;-62
2022/03/05 05:32:10;;;;;;;25.23;21.58;;;1.80;99.90;;;;;;4935400;29;20733;-62
2022/03/05 05:34:38;;;;;;;25.88;22.25;;;1.90;99.90;;;;;;4933922;29;20578;-60
2022/03/05 05:37:13;;;;;;;27.15;23.40;;;1.70;99.90;;;;;;4934648;29;20216;-61
2022/03/05 05:39:41;;;;;;;26.40;22.17;;;1.70;99.90;;;;;;4935265;29;20204;-61
2022/03/05 05:42:09;;;;;;;24.77;21.17;;;1.70;99.90;;;;;;4934974;29;20329;-62
2022/03/05 05:44:39;;;;;;;25.73;22.50;;;1.50;99.90;;;;;;4934918;29;20235;-62
2022/03/05 05:47:07;;;;;;;29.45;21.42;;;1.80;99.90;;;;;;4935316;29;20201;-62
2022/03/05 05:49:36;;;;;;;27.38;22.50;;;2.00;99.90;;;;;;4934637;29;20196;-61
2022/03/05 05:52:05;;;;;;;28.52;23.77;;;1.70;99.90;;;;;;4930969;29;20228;-62
2022/03/05 05:54:34;;;;;;;27.83;23.98;;;1.40;99.90;;;;;;4930477;29;20248;-61
2022/03/05 05:57:02;;;;;;;26.42;23.38;;;1.30;99.90;;;;;;4933983;29;20719;-61
2022/03/05 05:59:30;;;;;;;26.83;22.65;;;1.40;99.90;;;;;;4934685;29;20236;-61
2022/03/05 06:01:59;;;;;;;26.55;22.77;;;1.40;99.90;;;;;;4934225;29;20287;-61
2022/03/05 06:04:27;;;;;;;29.15;24.65;;;1.20;99.90;;;;;;4934607;29;20208;-61
2022/03/05 06:06:55;;;;;;;29.63;24.33;;;1.10;99.90;;;;;;4934160;29;20635;-62
2022/03/05 06:09:23;;;;;;;27.83;24.83;;;1.00;99.90;;;;;;4935010;29;20247;-62
2022/03/05 06:11:51;;;;;;;28.60;23.60;;;0.90;99.90;;;;;;4935151;29;20868;-61
2022/03/05 06:14:19;;;;;;;28.58;25.50;;;0.90;99.90;;;;;;4933204;29;20271;-61
2022/03/05 06:16:47;;;;;;;27.70;24.23;;;1.10;99.90;;;;;;4933735;29;20323;-61
2022/03/05 06:19:16;;;;;;;29.48;23.30;;;1.10;99.90;;;;;;4934465;29;20224;-60
2022/03/05 06:21:44;;;;;;;26.45;23.33;;;1.40;99.90;;;;;;4934743;29;20311;-61
2022/03/05 06:24:12;;;;;;;29.00;24.13;;;1.60;99.90;;;;;;4931877;29;20286;-61
2022/03/05 06:26:40;;;;;;;25.70;23.00;;;1.80;99.90;;;;;;4934166;29;20315;-61
2022/03/05 06:29:07;;;;;;;27.02;23.35;;;1.80;99.90;;;;;;4934364;29;20223;-60
2022/03/05 06:31:35;;;;;;;26.25;22.55;;;1.90;99.90;;;;;;4932269;29;20295;-62
2022/03/05 06:34:03;;;;;;;28.77;24.30;;;2.00;99.90;;;;;;4933088;29;20287;-62
2022/03/05 06:36:32;;;;;;;27.83;23.00;;;1.80;99.90;;;;;;4934247;29;20326;-62
2022/03/05 06:39:00;;;;;;;26.83;22.25;;;1.60;99.90;;;;;;4935848;29;20713;-62
2022/03/05 06:41:28;;;;;;;26.25;23.20;;;1.40;99.90;;;;;;4934557;29;20263;-62
2022/03/05 06:43:56;;;;;;;26.85;22.95;;;1.30;99.90;;;;;;4934295;29;20670;-61
2022/03/05 06:46:24;;;;;;;28.05;24.98;;;1.30;99.90;;;;;;4925054;29;20232;-62
2022/03/05 06:48:52;;;;;;;28.60;23.20;;;1.40;99.90;;;;;;4921291;29;20204;-62
2022/03/05 06:51:20;;;;;;;29.38;24.95;;;1.40;99.90;;;;;;4926089;29;20204;-61
2022/03/05 06:53:49;;;;;;;25.92;23.13;;;1.70;99.90;;;;;;4925291;29;20295;-62
2022/03/05 06:56:17;;;;;;;25.77;22.92;;;1.70;99.90;;;;;;4923365;29;20311;-63
2022/03/05 06:58:44;;;;;;;32.08;25.63;;;1.70;99.90;;;;;;4920754;29;20307;-62
2022/03/05 07:01:12;;;;;;;29.40;25.63;;;1.60;99.90;;;;;;4919069;29;20204;-62
2022/03/05 07:03:40;;;;;;;26.77;24.05;;;1.40;99.90;;;;;;4922475;29;20235;-62
2022/03/05 07:06:08;;;;;;;28.38;25.38;;;1.60;99.90;;;;;;4922454;29;20251;-62
2022/03/05 07:08:37;;;;;;;28.42;25.42;;;1.80;99.90;;;;;;4921947;29;20308;-62
2022/03/05 07:11:06;;;;;;;26.30;23.45;;;1.80;99.90;;;;;;4922176;29;20223;-62
2022/03/05 07:13:35;;;;;;;24.98;22.23;;;1.80;99.90;;;;;;4920707;29;20200;-62
2022/03/05 07:16:03;;;;;;;26.67;23.73;;;1.80;99.90;;;;;;4925364;29;20220;-62
2022/03/05 07:18:31;;;;;;;27.02;24.13;;;1.80;99.90;;;;;;4918333;29;20239;-62
2022/03/05 07:20:59;;;;;;;27.70;24.42;;;1.90;99.90;;;;;;4921218;29;20238;-62
2022/03/05 07:23:27;;;;;;;27.08;24.27;;;2.00;99.90;;;;;;4923073;29;20267;-62
2022/03/05 07:25:55;;;;;;;27.65;24.75;;;2.00;99.90;;;;;;4920977;29;20315;-62
2022/03/05 07:28:24;;;;;;;26.20;23.20;;;2.00;99.90;;;;;;4918010;29;20227;-62
2022/03/05 07:30:52;;;;;;;28.58;24.13;;;2.10;99.90;;;;;;4920665;29;20296;-62
2022/03/05 07:33:20;;;;;;;29.20;24.88;;;2.20;99.90;;;;;;4919130;29;20231;-62
2022/03/05 07:35:48;;;;;;;25.55;22.75;;;2.20;99.90;;;;;;4921594;29;20314;-62
2022/03/05 07:38:16;;;;;;;29.20;26.10;;;2.20;99.90;;;;;;4929217;29;20243;-62
2022/03/05 07:40:44;;;;;;;28.23;25.23;;;2.20;99.90;;;;;;4919721;29;20284;-62
2022/03/05 07:43:13;;;;;;;27.27;24.35;;;2.30;99.90;;;;;;4924303;29;20279;-62
2022/03/05 07:45:42;;;;;;;27.48;24.58;;;2.50;99.90;;;;;;4928489;29;20259;-62
2022/03/05 07:48:10;;;;;;;26.17;23.45;;;2.60;99.90;;;;;;4925021;29;20200;-62
2022/03/05 07:50:38;;;;;;;25.67;23.00;;;2.90;99.90;;;;;;4922276;29;20279;-62
2022/03/05 07:53:06;;;;;;;28.33;25.35;;;2.90;99.90;;;;;;4918070;29;20261;-61
2022/03/05 07:55:35;;;;;;;25.65;23.02;;;2.80;99.90;;;;;;4919444;29;20212;-61
2022/03/05 07:58:03;;;;;;;25.75;22.85;;;2.80;99.90;;;;;;4932061;29;20251;-62
2022/03/05 08:00:31;;;;;;;26.15;23.33;;;3.00;99.90;;;;;;4933653;29;20267;-62
2022/03/05 08:03:00;;;;;;;26.17;23.58;;;3.00;99.90;;;;;;4931435;29;20713;-63
2022/03/05 08:05:29;;;;;;;29.15;24.42;;;3.10;99.90;;;;;;4925575;29;20235;-63
2022/03/05 08:07:56;;;;;;;27.30;23.63;;;3.20;99.90;;;;;;4927258;29;20212;-63
2022/03/05 08:10:24;;;;;;;26.00;23.50;;;3.20;99.90;;;;;;4927579;29;20287;-62
2022/03/05 08:12:52;;;;;;;25.50;22.80;;;3.30;99.90;;;;;;4927907;29;20212;-62
2022/03/05 08:15:20;;;;;;;23.20;20.92;;;3.40;99.90;;;;;;4928257;29;20247;-62
2022/03/05 08:17:53;;;;;;;26.20;22.95;;;3.40;99.90;;;;;;4929214;29;20232;-62
2022/03/05 08:20:23;;;;;;;26.08;23.33;;;3.60;99.90;;;;;;4927970;29;20298;-62
2022/03/05 08:22:51;;;;;;;26.40;23.70;;;3.70;99.90;;;;;;4926133;29;20241;-62
2022/03/05 08:25:20;;;;;;;24.48;21.95;;;3.70;99.90;;;;;;4924985;29;20311;-62
2022/03/05 08:27:48;;;;;;;26.20;23.40;;;3.90;99.90;;;;;;4931589;29;20211;-63
2022/03/05 08:30:17;;;;;;;24.77;22.13;;;4.10;99.90;;;;;;4929306;29;20312;-62
2022/03/05 08:32:45;;;;;;;24.85;21.80;;;4.30;99.90;;;;;;4926632;29;20279;-62
2022/03/05 08:35:14;;;;;;;24.90;22.23;;;4.30;99.90;;;;;;4924290;29;20893;-62
2022/03/05 08:37:44;;;;;;;24.58;22.02;;;4.40;99.90;;;;;;4928486;29;20231;-63
2022/03/05 08:40:14;;;;;;;24.35;21.70;;;4.60;99.90;;;;;;4931447;29;20320;-63
2022/03/05 08:42:43;;;;;;;23.88;20.42;;;4.70;99.90;;;;;;4930636;29;20294;-62
2022/03/05 08:45:12;;;;;;;24.10;21.50;;;5.00;99.90;;;;;;4931078;29;20227;-62
2022/03/05 08:47:41;;;;;;;22.92;20.45;;;5.10;99.90;;;;;;4931212;29;20318;-62
2022/03/05 08:50:10;;;;;;;29.45;23.25;;;5.30;99.90;;;;;;4931133;29;20196;-62
2022/03/05 08:52:38;;;;;;;24.05;21.45;;;5.40;99.90;;;;;;4930239;29;20322;-63
2022/03/05 08:55:10;;;;;;;23.67;21.05;;;5.60;99.90;;;;;;4930935;29;20293;-63
2022/03/05 08:57:39;;;;;;;27.23;22.70;;;5.70;99.90;;;;;;4924160;29;20208;-63
2022/03/05 09:00:09;;;;;;;23.75;21.25;;;6.00;99.90;;;;;;4930733;29;20232;-62
2022/03/05 09:02:37;;;;;;;25.50;21.80;;;5.90;99.90;;;;;;4926201;29;20203;-62
2022/03/05 09:05:06;;;;;;;25.00;21.40;;;6.00;99.90;;;;;;4927387;29;20239;-63
2022/03/05 09:07:34;;;;;;;23.15;20.00;;;5.90;99.90;;;;;;4931141;29;20295;-63
2022/03/05 09:10:02;;;;;;;22.05;19.48;;;6.20;99.90;;;;;;4929023;29;20232;-63
2022/03/05 09:12:32;;;;;;;23.23;20.33;;;6.40;99.90;;;;;;4930368;29;20291;-63
2022/03/05 09:15:00;;;;;;;22.02;19.63;;;6.50;99.90;;;;;;4929915;29;20331;-63
2022/03/05 09:17:28;;;;;;;23.33;18.98;;;6.90;99.90;;;;;;4930632;29;20200;-62
2022/03/05 09:19:57;;;;;;;24.65;19.83;;;6.90;99.90;;;;;;4929633;29;20248;-62
2022/03/05 09:22:26;;;;;;;27.10;18.70;;;6.80;99.90;;;;;;4930195;29;20235;-63
2022/03/05 09:24:54;;;;;;;25.38;21.25;;;6.80;99.90;;;;;;4929955;29;20700;-63
2022/03/05 09:27:25;;;;;;;26.75;19.95;;;6.80;99.90;;;;;;4927041;29;20303;-63
2022/03/05 09:29:54;;;;;;;24.42;20.73;;;7.00;99.90;;;;;;4928431;29;20313;-63
2022/03/05 09:32:22;;;;;;;23.77;20.27;;;7.20;99.90;;;;;;4929015;29;20291;-63
2022/03/05 09:34:50;;;;;;;24.70;19.75;;;7.50;99.90;;;;;;4929491;29;20218;-63
2022/03/05 09:37:18;;;;;;;25.45;19.58;;;7.50;99.90;;;;;;4929910;29;20869;-63
2022/03/05 09:39:47;;;;;;;24.60;19.45;;;7.40;99.90;;;;;;4930513;29;20231;-63
2022/03/05 09:42:15;;;;;;;27.48;20.65;;;7.70;99.90;;;;;;4929746;29;20299;-63
2022/03/05 09:44:43;;;;;;;29.27;20.60;;;7.50;99.90;;;;;;4929984;29;20292;-62
2022/03/05 09:47:13;;;;;;;25.08;20.45;;;7.50;99.90;;;;;;4929984;29;20208;-62
2022/03/05 09:49:41;;;;;;;29.17;21.13;;;7.80;99.90;;;;;;4925091;29;20308;-63
2022/03/05 09:52:11;;;;;;;24.25;18.90;;;7.90;99.90;;;;;;4929088;29;20208;-63
2022/03/05 09:54:39;;;;;;;25.15;17.95;;;8.30;99.90;;;;;;4923165;29;20295;-63
2022/03/05 09:57:11;;;;;;;22.58;19.65;;;8.70;99.90;;;;;;4919646;29;20247;-63
2022/03/05 09:59:40;;;;;;;21.88;18.58;;;8.60;99.90;;;;;;4922779;29;20247;-63
2022/03/05 10:02:10;;;;;;;25.30;19.35;;;8.50;99.70;;;;;;4925336;29;20814;-63
2022/03/05 10:04:39;;;;;;;26.00;20.70;;;8.40;99.70;;;;;;4929411;29;20697;-63
2022/03/05 10:07:09;;;;;;;20.98;18.27;;;8.70;99.90;;;;;;4929157;29;20635;-63
2022/03/05 10:09:39;;;;;;;22.58;18.83;;;9.00;98.80;;;;;;4929820;29;20204;-63
2022/03/05 10:12:30;;;;;;;19.52;16.73;;;9.20;99.20;;;;;;4928899;29;20239;-63
2022/03/05 10:15:06;;;;;;;22.92;18.40;;;9.30;98.90;;;;;;4928036;29;20244;-62
2022/03/05 10:17:54;;;;;;;23.67;18.88;;;9.30;98.10;;;;;;4929473;29;20353;-63
2022/03/05 10:20:25;;;;;;;23.38;18.25;;;9.40;98.50;;;;;;4929688;29;20259;-63
2022/03/05 10:22:59;;;;;;;22.58;17.75;;;9.70;98.60;;;;;;4928507;29;20232;-63
2022/03/05 10:25:32;;;;;;;21.98;18.80;;;9.90;97.00;;;;;;4926220;29;20314;-63
2022/03/05 10:28:05;;;;;;;24.10;19.75;;;10.20;96.70;;;;;;4926827;29;20214;-63
2022/03/05 10:30:35;;;;;;;21.63;19.27;;;10.20;95.70;;;;;;4929147;29;20206;-63
2022/03/05 10:33:04;;;;;;;22.73;19.05;;;10.60;95.60;;;;;;4928700;29;20722;-63
2022/03/05 10:35:33;;;;;;;25.98;19.05;;;10.40;95.50;;;;;;4928071;29;20327;-63
2022/03/05 10:38:01;;;;;;;21.08;17.67;;;10.30;94.80;;;;;;4928085;29;20207;-63
2022/03/05 10:40:34;;;;;;;20.85;17.60;;;10.40;94.80;;;;;;4928967;29;20242;-63
2022/03/05 10:43:06;;;;;;;23.23;17.55;;;10.60;94.40;;;;;;4924280;29;20232;-63
2022/03/05 10:45:50;;;;;;;21.30;18.92;;;11.10;93.30;;;;;;4924933;29;20247;-63
2022/03/05 10:48:27;;;;;;;22.33;18.25;;;11.70;93.20;;;;;;4928632;29;20691;-63
2022/03/05 10:50:59;;;;;;;20.30;16.80;;;11.50;92.10;;;;;;4928501;29;20239;-63
2022/03/05 10:53:42;;;;;;;22.23;18.33;;;11.40;92.60;;;;;;4927672;29;20307;-63
2022/03/05 10:56:31;;;;;;;20.98;18.63;;;11.00;92.70;;;;;;4917080;29;20322;-63
2022/03/05 10:59:01;;;;;;;20.67;18.05;;;11.20;91.80;;;;;;4928293;29;20232;-63
2022/03/05 11:01:30;;;;;;;19.25;15.45;;;11.10;92.70;;;;;;4926464;29;20445;-63
2022/03/05 11:03:59;;;;;;;16.85;15.05;;;11.50;91.40;;;;;;4928280;29;20211;-63
2022/03/05 11:06:28;;;;;;;19.27;15.57;;;11.50;89.70;;;;;;4924957;29;20220;-63
2022/03/05 11:08:57;;;;;;;19.10;16.92;;;11.90;90.60;;;;;;4923478;29;20207;-63
2022/03/05 11:11:26;;;;;;;20.40;17.42;;;11.90;90.40;;;;;;4928638;29;20291;-63
2022/03/05 11:13:54;;;;;;;15.95;13.98;;;12.00;90.80;;;;;;4928763;29;20203;-63
2022/03/05 11:16:23;;;;;;;18.38;16.15;;;12.40;90.70;;;;;;4927091;29;20224;-63
2022/03/05 11:18:51;;;;;;;17.30;15.57;;;12.70;87.40;;;;;;4927160;29;20208;-63
2022/03/05 11:21:19;;;;;;;15.30;12.95;;;12.50;87.60;;;;;;4927841;29;20297;-63
2022/03/05 11:23:49;;;;;;;16.15;14.52;;;12.70;88.00;;;;;;4928203;29;20745;-63
2022/03/05 11:26:17;;;;;;;17.95;14.98;;;12.70;87.50;;;;;;4927389;29;20693;-63
2022/03/05 11:28:51;;;;;;;16.38;14.68;;;13.00;82.00;;;;;;4922298;29;20725;-63
2022/03/05 11:31:20;;;;;;;17.00;14.38;;;13.30;81.30;;;;;;4928403;29;20200;-63
2022/03/05 11:33:49;;;;;;;17.13;15.38;;;13.20;81.70;;;;;;4928006;29;20673;-63
2022/03/05 11:36:28;;;;;;;17.92;15.75;;;13.30;79.20;;;;;;4927441;29;20484;-63
2022/03/05 11:39:16;;;;;;;16.13;14.43;;;13.50;83.30;;;;;;4921803;29;20681;-63
2022/03/05 11:42:01;;;;;;;18.92;15.23;;;14.20;79.60;;;;;;4926013;29;20263;-64
2022/03/05 11:44:39;;;;;;;17.35;14.57;;;14.40;79.40;;;;;;4928218;29;20553;-63
2022/03/05 11:47:37;;;;;;;18.17;14.68;;;13.80;76.90;;;;;;4927800;29;20254;-63
2022/03/05 11:50:16;;;;;;;15.43;13.65;;;14.00;81.00;;;;;;4925786;29;20243;-63
2022/03/05 11:53:08;;;;;;;18.48;15.68;;;14.10;76.70;;;;;;4927521;29;20340;-64
2022/03/05 11:55:41;;;;;;;16.92;15.13;;;14.00;78.20;;;;;;4922296;29;20319;-63
2022/03/05 11:58:32;;;;;;;17.25;15.18;;;13.80;78.50;;;;;;4925296;29;20255;-63
2022/03/05 12:01:22;;;;;;;15.98;14.18;;;14.10;75.60;;;;;;4927812;29;20247;-63
2022/03/05 12:03:52;;;;;;;15.10;12.98;;;13.90;78.70;;;;;;4928184;29;20628;-64
2022/03/05 12:06:20;;;;;;;12.20;10.70;;;14.00;74.70;;;;;;4926728;29;20337;-63
2022/03/05 12:08:52;;;;;;;13.48;12.18;;;14.20;74.60;;;;;;4927992;29;20212;-63
2022/03/05 12:11:23;;;;;;;17.08;15.38;;;14.50;76.00;;;;;;4928347;29;20303;-63
2022/03/05 12:13:57;;;;;;;14.25;12.85;;;14.60;77.00;;;;;;4930898;29;20208;-64
2022/03/05 12:16:27;;;;;;;14.73;13.23;;;14.60;75.10;;;;;;4931580;29;20227;-63
2022/03/05 12:18:57;;;;;;;15.13;13.43;;;14.30;73.10;;;;;;4931612;29;20290;-63
2022/03/05 12:21:26;;;;;;;15.68;14.13;;;13.40;74.60;;;;;;4930958;29;20228;-64
2022/03/05 12:24:07;;;;;;;17.40;15.38;;;13.00;77.60;;;;;;4930655;29;20299;-63
2022/03/05 12:26:40;;;;;;;15.95;13.10;;;12.50;76.60;;;;;;4929359;29;20242;-64
2022/03/05 12:29:09;;;;;;;15.32;13.82;;;12.40;80.30;;;;;;4926647;29;20243;-63
2022/03/05 12:31:41;;;;;;;13.38;12.02;;;12.70;78.50;;;;;;4931378;29;20232;-63
2022/03/05 12:34:09;;;;;;;12.68;10.52;;;12.90;74.70;;;;;;4931334;29;20267;-64
2022/03/05 12:36:42;;;;;;;11.18;10.07;;;13.40;73.00;;;;;;4931036;29;20270;-64
2022/03/05 12:39:10;;;;;;;11.10;10.00;;;13.70;69.50;;;;;;4931291;29;20211;-65
2022/03/05 12:41:43;;;;;;;11.73;10.63;;;14.30;69.30;;;;;;4930996;29;20773;-64
2022/03/05 12:44:12;;;;;;;11.60;10.48;;;14.70;70.30;;;;;;4930819;29;20323;-64
2022/03/05 12:46:40;;;;;;;9.35;8.45;;;14.80;67.50;;;;;;4927518;29;20228;-64
2022/03/05 12:49:09;;;;;;;10.02;8.95;;;15.00;66.80;;;;;;4930946;29;20250;-65